sensor_id;sensor_type;location;lat;lon;timestamp;P1;durP1;ratioP1;P2;durP2;ratioP2
12812;SDS011;6471;50.932;6.934;2023-10-09T00:01:28;7.23;;;4.73;;
12812;SDS011;6471;50.932;6.934;2023-10-09T00:03:56;7.37;;;5.00;;
12812;SDS011;6471;50.932;6.934;2023-10-09T00:06:26;6.83;;;5.07;;
12812;SDS011;6471;50.932;6.934;2023-10-09T00:09:04;6.00;;;4.60;;
12812;SDS011;6471;50.932;6.934;2023-10-09T00:11:49;6.33;;;4.50;;
12812;SDS011;6471;50.932;6.934;2023-10-09T00:14:21;6.17;;;4.47;;
12812;SDS011;6471;50.932;6.934;2023-10-09T00:16:47;8.43;;;5.23;;
12812;SDS011;6471;50.932;6.934;2023-10-09T00:19:21;6.90;;;4.87;;
12812;SDS011;6471;50.932;6.934;2023-10-09T00:21:55;7.80;;;5.00;;
12812;SDS011;6471;50.932;6.934;2023-10-09T00:24:23;7.13;;;4.73;;
12812;SDS011;6471;50.932;6.934;2023-10-09T00:26:50;5.67;;;4.70;;
12812;SDS011;6471;50.932;6.934;2023-10-09T00:29:16;5.33;;;4.20;;
12812;SDS011;6471;50.932;6.934;2023-10-09T00:31:55;6.57;;;4.60;;
12812;SDS011;6471;50.932;6.934;2023-10-09T00:34:28;5.27;;;3.73;;
12812;SDS011;6471;50.932;6.934;2023-10-09T00:36:54;5.10;;;4.27;;
12812;SDS011;6471;50.932;6.934;2023-10-09T00:39:22;4.97;;;4.03;;
12812;SDS011;6471;50.932;6.934;2023-10-09T00:42:01;5.43;;;3.97;;
12812;SDS011;6471;50.932;6.934;2023-10-09T00:44:28;5.47;;;3.67;;
12812;SDS011;6471;50.932;6.934;2023-10-09T00:47:06;4.83;;;3.53;;
12812;SDS011;6471;50.932;6.934;2023-10-09T00:49:56;6.07;;;4.13;;
12812;SDS011;6471;50.932;6.934;2023-10-09T00:52:33;5.50;;;3.60;;
12812;SDS011;6471;50.932;6.934;2023-10-09T00:55:10;5.37;;;3.50;;
12812;SDS011;6471;50.932;6.934;2023-10-09T00:57:43;4.53;;;3.50;;
12812;SDS011;6471;50.932;6.934;2023-10-09T01:00:24;4.50;;;3.40;;
12812;SDS011;6471;50.932;6.934;2023-10-09T01:02:58;4.63;;;3.50;;
12812;SDS011;6471;50.932;6.934;2023-10-09T01:05:35;3.60;;;3.03;;
12812;SDS011;6471;50.932;6.934;2023-10-09T01:08:02;4.47;;;3.40;;
12812;SDS011;6471;50.932;6.934;2023-10-09T01:10:45;4.87;;;3.30;;
12812;SDS011;6471;50.932;6.934;2023-10-09T01:13:17;4.23;;;3.53;;
12812;SDS011;6471;50.932;6.934;2023-10-09T01:15:43;4.67;;;3.73;;
12812;SDS011;6471;50.932;6.934;2023-10-09T01:18:10;4.97;;;3.53;;
12812;SDS011;6471;50.932;6.934;2023-10-09T01:20:37;4.27;;;3.40;;
12812;SDS011;6471;50.932;6.934;2023-10-09T01:23:08;5.27;;;3.93;;
12812;SDS011;6471;50.932;6.934;2023-10-09T01:25:34;5.07;;;3.67;;
12812;SDS011;6471;50.932;6.934;2023-10-09T01:28:08;4.40;;;3.37;;
12812;SDS011;6471;50.932;6.934;2023-10-09T01:30:34;5.37;;;4.07;;
12812;SDS011;6471;50.932;6.934;2023-10-09T01:33:06;4.67;;;3.50;;
12812;SDS011;6471;50.932;6.934;2023-10-09T01:35:42;4.70;;;3.70;;
12812;SDS011;6471;50.932;6.934;2023-10-09T01:38:12;4.33;;;3.47;;
12812;SDS011;6471;50.932;6.934;2023-10-09T01:40:40;5.17;;;3.63;;
12812;SDS011;6471;50.932;6.934;2023-10-09T01:43:08;4.10;;;3.40;;
12812;SDS011;6471;50.932;6.934;2023-10-09T01:45:35;5.73;;;3.97;;
12812;SDS011;6471;50.932;6.934;2023-10-09T01:48:07;4.80;;;3.47;;
12812;SDS011;6471;50.932;6.934;2023-10-09T01:50:34;5.17;;;3.47;;
12812;SDS011;6471;50.932;6.934;2023-10-09T01:53:03;5.00;;;3.47;;
12812;SDS011;6471;50.932;6.934;2023-10-09T01:55:33;4.70;;;3.60;;
12812;SDS011;6471;50.932;6.934;2023-10-09T01:58:05;5.07;;;3.60;;
12812;SDS011;6471;50.932;6.934;2023-10-09T02:00:47;4.20;;;3.40;;
12812;SDS011;6471;50.932;6.934;2023-10-09T02:03:15;4.83;;;3.33;;
12812;SDS011;6471;50.932;6.934;2023-10-09T02:05:42;4.80;;;3.57;;
12812;SDS011;6471;50.932;6.934;2023-10-09T02:08:08;4.77;;;3.30;;
12812;SDS011;6471;50.932;6.934;2023-10-09T02:10:36;4.43;;;3.00;;
12812;SDS011;6471;50.932;6.934;2023-10-09T02:13:05;4.07;;;3.10;;
12812;SDS011;6471;50.932;6.934;2023-10-09T02:15:31;4.63;;;3.13;;
12812;SDS011;6471;50.932;6.934;2023-10-09T02:18:10;3.93;;;3.10;;
12812;SDS011;6471;50.932;6.934;2023-10-09T02:20:52;4.30;;;3.20;;
12812;SDS011;6471;50.932;6.934;2023-10-09T02:23:25;5.03;;;3.43;;
12812;SDS011;6471;50.932;6.934;2023-10-09T02:26:01;4.40;;;3.20;;
12812;SDS011;6471;50.932;6.934;2023-10-09T02:28:30;4.60;;;3.20;;
12812;SDS011;6471;50.932;6.934;2023-10-09T02:30:59;4.27;;;2.73;;
12812;SDS011;6471;50.932;6.934;2023-10-09T02:33:27;3.77;;;3.00;;
12812;SDS011;6471;50.932;6.934;2023-10-09T02:35:54;5.37;;;3.30;;
12812;SDS011;6471;50.932;6.934;2023-10-09T02:38:20;3.90;;;3.17;;
12812;SDS011;6471;50.932;6.934;2023-10-09T02:40:51;4.77;;;3.30;;
12812;SDS011;6471;50.932;6.934;2023-10-09T02:43:30;3.57;;;2.70;;
12812;SDS011;6471;50.932;6.934;2023-10-09T02:46:09;3.73;;;3.07;;
12812;SDS011;6471;50.932;6.934;2023-10-09T02:48:58;4.00;;;2.90;;
12812;SDS011;6471;50.932;6.934;2023-10-09T02:51:28;3.50;;;2.97;;
12812;SDS011;6471;50.932;6.934;2023-10-09T02:54:07;4.40;;;2.93;;
12812;SDS011;6471;50.932;6.934;2023-10-09T02:56:43;3.67;;;2.90;;
12812;SDS011;6471;50.932;6.934;2023-10-09T02:59:12;4.37;;;3.20;;
12812;SDS011;6471;50.932;6.934;2023-10-09T03:01:38;3.93;;;2.70;;
12812;SDS011;6471;50.932;6.934;2023-10-09T03:04:05;4.20;;;3.17;;
12812;SDS011;6471;50.932;6.934;2023-10-09T03:06:32;3.33;;;2.63;;
12812;SDS011;6471;50.932;6.934;2023-10-09T03:09:03;3.93;;;2.90;;
12812;SDS011;6471;50.932;6.934;2023-10-09T03:11:43;2.93;;;2.30;;
12812;SDS011;6471;50.932;6.934;2023-10-09T03:14:09;3.33;;;2.40;;
12812;SDS011;6471;50.932;6.934;2023-10-09T03:16:35;3.67;;;2.73;;
12812;SDS011;6471;50.932;6.934;2023-10-09T03:19:01;3.77;;;2.67;;
12812;SDS011;6471;50.932;6.934;2023-10-09T03:21:28;3.80;;;2.73;;
12812;SDS011;6471;50.932;6.934;2023-10-09T03:23:55;3.47;;;2.70;;
12812;SDS011;6471;50.932;6.934;2023-10-09T03:26:21;3.83;;;2.43;;
12812;SDS011;6471;50.932;6.934;2023-10-09T03:28:51;3.20;;;2.50;;
12812;SDS011;6471;50.932;6.934;2023-10-09T03:31:17;3.50;;;2.67;;
12812;SDS011;6471;50.932;6.934;2023-10-09T03:33:43;2.60;;;2.20;;
12812;SDS011;6471;50.932;6.934;2023-10-09T03:36:09;3.23;;;2.63;;
12812;SDS011;6471;50.932;6.934;2023-10-09T03:38:36;4.87;;;2.87;;
12812;SDS011;6471;50.932;6.934;2023-10-09T03:41:03;3.77;;;2.43;;
12812;SDS011;6471;50.932;6.934;2023-10-09T03:43:31;3.67;;;2.60;;
12812;SDS011;6471;50.932;6.934;2023-10-09T03:45:59;3.43;;;2.40;;
12812;SDS011;6471;50.932;6.934;2023-10-09T03:48:28;4.70;;;2.80;;
12812;SDS011;6471;50.932;6.934;2023-10-09T03:50:58;2.87;;;2.30;;
12812;SDS011;6471;50.932;6.934;2023-10-09T03:53:38;4.40;;;2.67;;
12812;SDS011;6471;50.932;6.934;2023-10-09T03:56:07;2.90;;;2.30;;
12812;SDS011;6471;50.932;6.934;2023-10-09T03:58:42;2.97;;;2.60;;
12812;SDS011;6471;50.932;6.934;2023-10-09T04:01:12;3.90;;;2.80;;
12812;SDS011;6471;50.932;6.934;2023-10-09T04:03:50;3.17;;;2.30;;
12812;SDS011;6471;50.932;6.934;2023-10-09T04:06:23;3.53;;;2.77;;
12812;SDS011;6471;50.932;6.934;2023-10-09T04:08:57;4.10;;;2.60;;
12812;SDS011;6471;50.932;6.934;2023-10-09T04:11:27;4.37;;;3.17;;
12812;SDS011;6471;50.932;6.934;2023-10-09T04:13:53;3.37;;;2.47;;
12812;SDS011;6471;50.932;6.934;2023-10-09T04:16:20;4.30;;;2.97;;
12812;SDS011;6471;50.932;6.934;2023-10-09T04:18:52;3.20;;;2.70;;
12812;SDS011;6471;50.932;6.934;2023-10-09T04:21:21;3.57;;;2.40;;
12812;SDS011;6471;50.932;6.934;2023-10-09T04:24:03;3.70;;;2.80;;
12812;SDS011;6471;50.932;6.934;2023-10-09T04:26:42;3.50;;;2.47;;
12812;SDS011;6471;50.932;6.934;2023-10-09T04:29:11;3.83;;;2.70;;
12812;SDS011;6471;50.932;6.934;2023-10-09T04:31:51;4.27;;;2.80;;
12812;SDS011;6471;50.932;6.934;2023-10-09T04:34:18;3.67;;;2.73;;
12812;SDS011;6471;50.932;6.934;2023-10-09T04:36:51;2.87;;;2.33;;
12812;SDS011;6471;50.932;6.934;2023-10-09T04:39:42;3.53;;;2.60;;
12812;SDS011;6471;50.932;6.934;2023-10-09T04:42:10;3.43;;;2.50;;
12812;SDS011;6471;50.932;6.934;2023-10-09T04:44:49;3.00;;;2.47;;
12812;SDS011;6471;50.932;6.934;2023-10-09T04:47:30;3.67;;;2.80;;
12812;SDS011;6471;50.932;6.934;2023-10-09T04:52:33;4.07;;;2.80;;
12812;SDS011;6471;50.932;6.934;2023-10-09T04:54:59;3.67;;;2.60;;
12812;SDS011;6471;50.932;6.934;2023-10-09T04:57:31;3.40;;;2.43;;
12812;SDS011;6471;50.932;6.934;2023-10-09T05:00:06;3.63;;;2.50;;
12812;SDS011;6471;50.932;6.934;2023-10-09T05:02:47;3.90;;;2.67;;
12812;SDS011;6471;50.932;6.934;2023-10-09T05:05:19;2.77;;;2.33;;
12812;SDS011;6471;50.932;6.934;2023-10-09T05:08:04;3.63;;;2.67;;
12812;SDS011;6471;50.932;6.934;2023-10-09T05:13:24;3.37;;;2.37;;
12812;SDS011;6471;50.932;6.934;2023-10-09T05:16:03;3.47;;;2.50;;
12812;SDS011;6471;50.932;6.934;2023-10-09T05:18:29;3.27;;;2.53;;
12812;SDS011;6471;50.932;6.934;2023-10-09T05:21:01;2.80;;;2.23;;
12812;SDS011;6471;50.932;6.934;2023-10-09T05:23:46;4.17;;;2.47;;
12812;SDS011;6471;50.932;6.934;2023-10-09T05:26:35;2.63;;;2.33;;
12812;SDS011;6471;50.932;6.934;2023-10-09T05:31:49;3.20;;;2.20;;
12812;SDS011;6471;50.932;6.934;2023-10-09T05:34:23;3.13;;;2.50;;
12812;SDS011;6471;50.932;6.934;2023-10-09T05:36:58;3.63;;;2.40;;
12812;SDS011;6471;50.932;6.934;2023-10-09T05:39:41;2.50;;;2.10;;
12812;SDS011;6471;50.932;6.934;2023-10-09T05:42:08;2.63;;;2.00;;
12812;SDS011;6471;50.932;6.934;2023-10-09T05:44:34;2.57;;;2.17;;
12812;SDS011;6471;50.932;6.934;2023-10-09T05:47:19;2.90;;;2.30;;
12812;SDS011;6471;50.932;6.934;2023-10-09T05:50:14;2.73;;;2.07;;
12812;SDS011;6471;50.932;6.934;2023-10-09T05:52:40;2.67;;;2.17;;
12812;SDS011;6471;50.932;6.934;2023-10-09T05:55:07;3.10;;;2.33;;
12812;SDS011;6471;50.932;6.934;2023-10-09T05:57:53;2.80;;;2.20;;
12812;SDS011;6471;50.932;6.934;2023-10-09T06:00:41;2.83;;;2.23;;
12812;SDS011;6471;50.932;6.934;2023-10-09T06:03:25;2.67;;;2.00;;
12812;SDS011;6471;50.932;6.934;2023-10-09T06:06:10;2.53;;;2.10;;
12812;SDS011;6471;50.932;6.934;2023-10-09T06:08:43;3.80;;;2.13;;
12812;SDS011;6471;50.932;6.934;2023-10-09T06:11:12;2.83;;;2.17;;
12812;SDS011;6471;50.932;6.934;2023-10-09T06:13:57;2.43;;;2.03;;
12812;SDS011;6471;50.932;6.934;2023-10-09T06:16:41;2.27;;;2.03;;
12812;SDS011;6471;50.932;6.934;2023-10-09T06:19:07;3.13;;;2.33;;
12812;SDS011;6471;50.932;6.934;2023-10-09T06:21:36;3.50;;;2.20;;
12812;SDS011;6471;50.932;6.934;2023-10-09T06:24:24;2.43;;;2.00;;
12812;SDS011;6471;50.932;6.934;2023-10-09T06:27:19;2.57;;;1.97;;
12812;SDS011;6471;50.932;6.934;2023-10-09T06:29:54;3.20;;;2.50;;
12812;SDS011;6471;50.932;6.934;2023-10-09T06:32:48;3.40;;;2.10;;
12812;SDS011;6471;50.932;6.934;2023-10-09T06:35:33;2.93;;;2.30;;
12812;SDS011;6471;50.932;6.934;2023-10-09T06:38:00;2.90;;;2.20;;
12812;SDS011;6471;50.932;6.934;2023-10-09T06:40:32;2.40;;;2.00;;
12812;SDS011;6471;50.932;6.934;2023-10-09T06:43:01;2.57;;;1.87;;
12812;SDS011;6471;50.932;6.934;2023-10-09T06:45:34;3.27;;;2.27;;
12812;SDS011;6471;50.932;6.934;2023-10-09T06:48:08;3.50;;;2.40;;
12812;SDS011;6471;50.932;6.934;2023-10-09T06:50:55;4.00;;;2.40;;
12812;SDS011;6471;50.932;6.934;2023-10-09T06:53:21;3.00;;;2.40;;
12812;SDS011;6471;50.932;6.934;2023-10-09T06:55:53;3.17;;;2.27;;
12812;SDS011;6471;50.932;6.934;2023-10-09T06:58:30;2.87;;;2.20;;
12812;SDS011;6471;50.932;6.934;2023-10-09T07:01:07;3.83;;;2.47;;
12812;SDS011;6471;50.932;6.934;2023-10-09T07:03:56;2.43;;;1.77;;
12812;SDS011;6471;50.932;6.934;2023-10-09T07:06:35;2.43;;;2.07;;
12812;SDS011;6471;50.932;6.934;2023-10-09T07:09:01;2.23;;;1.90;;
12812;SDS011;6471;50.932;6.934;2023-10-09T07:14:08;2.50;;;1.97;;
12812;SDS011;6471;50.932;6.934;2023-10-09T07:16:54;3.97;;;2.37;;
12812;SDS011;6471;50.932;6.934;2023-10-09T07:19:38;3.37;;;2.30;;
12812;SDS011;6471;50.932;6.934;2023-10-09T07:22:07;3.20;;;2.40;;
12812;SDS011;6471;50.932;6.934;2023-10-09T07:24:52;3.23;;;2.50;;
12812;SDS011;6471;50.932;6.934;2023-10-09T07:27:24;3.33;;;2.40;;
12812;SDS011;6471;50.932;6.934;2023-10-09T07:30:09;3.50;;;2.20;;
12812;SDS011;6471;50.932;6.934;2023-10-09T07:32:57;3.47;;;2.30;;
12812;SDS011;6471;50.932;6.934;2023-10-09T07:35:37;3.53;;;2.37;;
12812;SDS011;6471;50.932;6.934;2023-10-09T07:38:10;3.93;;;2.87;;
12812;SDS011;6471;50.932;6.934;2023-10-09T07:40:36;3.37;;;2.47;;
12812;SDS011;6471;50.932;6.934;2023-10-09T07:46:25;3.23;;;2.57;;
12812;SDS011;6471;50.932;6.934;2023-10-09T07:49:20;3.17;;;2.30;;
12812;SDS011;6471;50.932;6.934;2023-10-09T07:51:54;2.60;;;2.30;;
12812;SDS011;6471;50.932;6.934;2023-10-09T07:54:23;3.60;;;2.50;;
12812;SDS011;6471;50.932;6.934;2023-10-09T07:56:59;2.97;;;2.33;;
12812;SDS011;6471;50.932;6.934;2023-10-09T08:02:37;2.97;;;2.40;;
12812;SDS011;6471;50.932;6.934;2023-10-09T08:05:04;3.00;;;2.20;;
12812;SDS011;6471;50.932;6.934;2023-10-09T08:07:32;3.20;;;2.50;;
12812;SDS011;6471;50.932;6.934;2023-10-09T08:10:02;3.70;;;2.73;;
12812;SDS011;6471;50.932;6.934;2023-10-09T08:12:44;4.37;;;2.60;;
12812;SDS011;6471;50.932;6.934;2023-10-09T08:15:22;2.77;;;2.30;;
12812;SDS011;6471;50.932;6.934;2023-10-09T08:17:52;3.20;;;2.63;;
12812;SDS011;6471;50.932;6.934;2023-10-09T08:20:22;3.03;;;2.40;;
12812;SDS011;6471;50.932;6.934;2023-10-09T08:22:52;3.07;;;2.30;;
12812;SDS011;6471;50.932;6.934;2023-10-09T08:25:20;2.67;;;2.30;;
12812;SDS011;6471;50.932;6.934;2023-10-09T08:28:13;3.10;;;2.10;;
12812;SDS011;6471;50.932;6.934;2023-10-09T08:30:39;3.30;;;2.50;;
12812;SDS011;6471;50.932;6.934;2023-10-09T08:33:16;2.90;;;2.33;;
12812;SDS011;6471;50.932;6.934;2023-10-09T08:35:54;2.93;;;2.30;;
12812;SDS011;6471;50.932;6.934;2023-10-09T08:38:33;3.23;;;2.20;;
12812;SDS011;6471;50.932;6.934;2023-10-09T08:41:06;2.90;;;2.40;;
12812;SDS011;6471;50.932;6.934;2023-10-09T08:43:40;3.73;;;2.50;;
12812;SDS011;6471;50.932;6.934;2023-10-09T08:46:10;3.80;;;2.80;;
12812;SDS011;6471;50.932;6.934;2023-10-09T08:48:38;3.50;;;2.77;;
12812;SDS011;6471;50.932;6.934;2023-10-09T08:51:04;4.23;;;2.67;;
12812;SDS011;6471;50.932;6.934;2023-10-09T08:53:31;3.93;;;2.90;;
12812;SDS011;6471;50.932;6.934;2023-10-09T08:55:58;6.93;;;3.57;;
12812;SDS011;6471;50.932;6.934;2023-10-09T08:58:24;5.93;;;3.70;;
12812;SDS011;6471;50.932;6.934;2023-10-09T09:00:53;4.93;;;3.67;;
12812;SDS011;6471;50.932;6.934;2023-10-09T09:03:21;4.37;;;3.43;;
12812;SDS011;6471;50.932;6.934;2023-10-09T09:06:00;7.97;;;4.43;;
12812;SDS011;6471;50.932;6.934;2023-10-09T09:08:27;6.57;;;4.17;;
12812;SDS011;6471;50.932;6.934;2023-10-09T09:10:57;5.80;;;3.80;;
12812;SDS011;6471;50.932;6.934;2023-10-09T09:13:25;4.47;;;3.30;;
12812;SDS011;6471;50.932;6.934;2023-10-09T09:15:56;4.50;;;3.07;;
12812;SDS011;6471;50.932;6.934;2023-10-09T09:18:22;3.90;;;3.17;;
12812;SDS011;6471;50.932;6.934;2023-10-09T09:20:49;4.67;;;3.23;;
12812;SDS011;6471;50.932;6.934;2023-10-09T09:23:18;5.20;;;2.93;;
12812;SDS011;6471;50.932;6.934;2023-10-09T09:25:48;4.07;;;2.67;;
12812;SDS011;6471;50.932;6.934;2023-10-09T09:28:23;3.70;;;2.73;;
12812;SDS011;6471;50.932;6.934;2023-10-09T09:30:52;2.80;;;2.40;;
12812;SDS011;6471;50.932;6.934;2023-10-09T09:33:19;3.83;;;2.80;;
12812;SDS011;6471;50.932;6.934;2023-10-09T09:36:01;3.10;;;2.43;;
12812;SDS011;6471;50.932;6.934;2023-10-09T09:38:28;3.17;;;2.37;;
12812;SDS011;6471;50.932;6.934;2023-10-09T09:40:58;3.77;;;2.43;;
12812;SDS011;6471;50.932;6.934;2023-10-09T09:43:27;4.23;;;3.07;;
12812;SDS011;6471;50.932;6.934;2023-10-09T09:45:56;4.43;;;2.83;;
12812;SDS011;6471;50.932;6.934;2023-10-09T09:48:22;4.93;;;3.37;;
12812;SDS011;6471;50.932;6.934;2023-10-09T09:50:49;3.23;;;2.80;;
12812;SDS011;6471;50.932;6.934;2023-10-09T09:53:19;3.70;;;2.70;;
12812;SDS011;6471;50.932;6.934;2023-10-09T09:55:51;5.27;;;3.57;;
12812;SDS011;6471;50.932;6.934;2023-10-09T09:58:22;4.60;;;3.10;;
12812;SDS011;6471;50.932;6.934;2023-10-09T10:00:50;4.20;;;2.80;;
12812;SDS011;6471;50.932;6.934;2023-10-09T10:03:20;3.40;;;2.50;;
12812;SDS011;6471;50.932;6.934;2023-10-09T10:05:48;4.33;;;3.20;;
12812;SDS011;6471;50.932;6.934;2023-10-09T10:08:16;3.90;;;2.63;;
12812;SDS011;6471;50.932;6.934;2023-10-09T10:10:45;4.17;;;2.90;;
12812;SDS011;6471;50.932;6.934;2023-10-09T10:16:10;3.50;;;2.63;;
12812;SDS011;6471;50.932;6.934;2023-10-09T10:18:52;4.47;;;2.87;;
12812;SDS011;6471;50.932;6.934;2023-10-09T10:21:25;3.53;;;2.47;;
12812;SDS011;6471;50.932;6.934;2023-10-09T10:24:03;2.83;;;2.40;;
12812;SDS011;6471;50.932;6.934;2023-10-09T10:26:35;4.20;;;2.73;;
12812;SDS011;6471;50.932;6.934;2023-10-09T10:29:20;3.77;;;2.83;;
12812;SDS011;6471;50.932;6.934;2023-10-09T10:31:52;3.60;;;2.60;;
12812;SDS011;6471;50.932;6.934;2023-10-09T10:34:21;3.40;;;2.40;;
12812;SDS011;6471;50.932;6.934;2023-10-09T10:36:49;3.60;;;2.63;;
12812;SDS011;6471;50.932;6.934;2023-10-09T10:39:23;3.37;;;2.60;;
12812;SDS011;6471;50.932;6.934;2023-10-09T10:42:07;3.07;;;2.40;;
12812;SDS011;6471;50.932;6.934;2023-10-09T10:44:34;2.90;;;2.20;;
12812;SDS011;6471;50.932;6.934;2023-10-09T10:47:07;2.93;;;2.47;;
12812;SDS011;6471;50.932;6.934;2023-10-09T10:49:57;4.40;;;2.63;;
12812;SDS011;6471;50.932;6.934;2023-10-09T10:52:24;3.40;;;2.33;;
12812;SDS011;6471;50.932;6.934;2023-10-09T10:55:16;4.63;;;2.90;;
12812;SDS011;6471;50.932;6.934;2023-10-09T10:58:00;3.00;;;2.37;;
12812;SDS011;6471;50.932;6.934;2023-10-09T11:00:38;3.47;;;2.70;;
12812;SDS011;6471;50.932;6.934;2023-10-09T11:03:23;2.27;;;2.00;;
12812;SDS011;6471;50.932;6.934;2023-10-09T11:06:01;3.87;;;2.57;;
12812;SDS011;6471;50.932;6.934;2023-10-09T11:08:46;3.10;;;2.70;;
12812;SDS011;6471;50.932;6.934;2023-10-09T11:11:19;3.80;;;2.70;;
12812;SDS011;6471;50.932;6.934;2023-10-09T11:13:46;4.90;;;3.50;;
12812;SDS011;6471;50.932;6.934;2023-10-09T11:16:22;6.23;;;3.13;;
12812;SDS011;6471;50.932;6.934;2023-10-09T11:19:00;3.23;;;2.60;;
12812;SDS011;6471;50.932;6.934;2023-10-09T11:21:38;4.10;;;3.07;;
12812;SDS011;6471;50.932;6.934;2023-10-09T11:24:08;4.23;;;2.80;;
12812;SDS011;6471;50.932;6.934;2023-10-09T11:26:50;5.40;;;3.20;;
12812;SDS011;6471;50.932;6.934;2023-10-09T11:29:20;4.93;;;3.40;;
12812;SDS011;6471;50.932;6.934;2023-10-09T11:32:03;4.83;;;3.00;;
12812;SDS011;6471;50.932;6.934;2023-10-09T11:34:34;8.13;;;3.53;;
12812;SDS011;6471;50.932;6.934;2023-10-09T11:37:03;5.10;;;3.00;;
12812;SDS011;6471;50.932;6.934;2023-10-09T11:39:31;6.67;;;3.90;;
12812;SDS011;6471;50.932;6.934;2023-10-09T11:42:03;5.40;;;3.40;;
12812;SDS011;6471;50.932;6.934;2023-10-09T11:44:39;5.90;;;3.33;;
12812;SDS011;6471;50.932;6.934;2023-10-09T11:47:07;7.00;;;3.60;;
12812;SDS011;6471;50.932;6.934;2023-10-09T11:49:52;7.40;;;4.00;;
12812;SDS011;6471;50.932;6.934;2023-10-09T11:52:23;6.23;;;4.10;;
12812;SDS011;6471;50.932;6.934;2023-10-09T11:55:11;5.90;;;3.87;;
12812;SDS011;6471;50.932;6.934;2023-10-09T11:57:41;5.57;;;3.70;;
12812;SDS011;6471;50.932;6.934;2023-10-09T12:00:08;7.03;;;3.80;;
12812;SDS011;6471;50.932;6.934;2023-10-09T12:03:09;5.33;;;3.50;;
12812;SDS011;6471;50.932;6.934;2023-10-09T12:05:36;6.77;;;3.90;;
12812;SDS011;6471;50.932;6.934;2023-10-09T12:08:03;5.37;;;3.27;;
12812;SDS011;6471;50.932;6.934;2023-10-09T12:10:33;5.00;;;3.60;;
12812;SDS011;6471;50.932;6.934;2023-10-09T12:12:59;7.47;;;3.90;;
12812;SDS011;6471;50.932;6.934;2023-10-09T12:15:29;12.27;;;4.50;;
12812;SDS011;6471;50.932;6.934;2023-10-09T12:18:03;6.57;;;3.77;;
12812;SDS011;6471;50.932;6.934;2023-10-09T12:20:29;6.53;;;3.93;;
12812;SDS011;6471;50.932;6.934;2023-10-09T12:22:58;7.37;;;4.00;;
12812;SDS011;6471;50.932;6.934;2023-10-09T12:25:25;6.30;;;3.80;;
12812;SDS011;6471;50.932;6.934;2023-10-09T12:27:51;7.90;;;3.80;;
12812;SDS011;6471;50.932;6.934;2023-10-09T12:30:22;5.13;;;3.70;;
12812;SDS011;6471;50.932;6.934;2023-10-09T12:32:55;6.77;;;3.87;;
12812;SDS011;6471;50.932;6.934;2023-10-09T12:35:22;7.90;;;4.40;;
12812;SDS011;6471;50.932;6.934;2023-10-09T12:37:50;8.07;;;4.60;;
12812;SDS011;6471;50.932;6.934;2023-10-09T12:40:16;6.87;;;4.07;;
12812;SDS011;6471;50.932;6.934;2023-10-09T12:42:49;8.10;;;4.43;;
12812;SDS011;6471;50.932;6.934;2023-10-09T12:45:16;5.50;;;3.60;;
12812;SDS011;6471;50.932;6.934;2023-10-09T12:47:43;9.27;;;3.70;;
12812;SDS011;6471;50.932;6.934;2023-10-09T12:50:09;6.30;;;4.00;;
12812;SDS011;6471;50.932;6.934;2023-10-09T12:52:39;6.10;;;3.80;;
12812;SDS011;6471;50.932;6.934;2023-10-09T12:55:05;8.77;;;4.17;;
12812;SDS011;6471;50.932;6.934;2023-10-09T12:57:35;6.03;;;3.43;;
12812;SDS011;6471;50.932;6.934;2023-10-09T13:00:01;6.90;;;3.83;;
12812;SDS011;6471;50.932;6.934;2023-10-09T13:02:36;8.20;;;3.93;;
12812;SDS011;6471;50.932;6.934;2023-10-09T13:05:02;9.80;;;3.90;;
12812;SDS011;6471;50.932;6.934;2023-10-09T13:07:32;5.27;;;3.60;;
12812;SDS011;6471;50.932;6.934;2023-10-09T13:09:58;5.93;;;3.23;;
12812;SDS011;6471;50.932;6.934;2023-10-09T13:12:33;5.37;;;3.50;;
12812;SDS011;6471;50.932;6.934;2023-10-09T13:15:06;5.20;;;3.20;;
12812;SDS011;6471;50.932;6.934;2023-10-09T13:17:34;6.20;;;3.50;;
12812;SDS011;6471;50.932;6.934;2023-10-09T13:20:01;6.10;;;4.23;;
12812;SDS011;6471;50.932;6.934;2023-10-09T13:22:37;6.20;;;3.43;;
12812;SDS011;6471;50.932;6.934;2023-10-09T13:25:04;6.00;;;3.70;;
12812;SDS011;6471;50.932;6.934;2023-10-09T13:27:30;7.30;;;4.07;;
12812;SDS011;6471;50.932;6.934;2023-10-09T13:29:59;5.33;;;3.87;;
12812;SDS011;6471;50.932;6.934;2023-10-09T13:32:30;6.57;;;4.07;;
12812;SDS011;6471;50.932;6.934;2023-10-09T13:35:00;5.87;;;3.90;;
12812;SDS011;6471;50.932;6.934;2023-10-09T13:37:30;5.90;;;3.80;;
12812;SDS011;6471;50.932;6.934;2023-10-09T13:40:02;8.80;;;3.80;;
12812;SDS011;6471;50.932;6.934;2023-10-09T13:42:34;6.70;;;3.77;;
12812;SDS011;6471;50.932;6.934;2023-10-09T13:45:02;9.97;;;4.73;;
12812;SDS011;6471;50.932;6.934;2023-10-09T13:47:40;6.80;;;4.13;;
12812;SDS011;6471;50.932;6.934;2023-10-09T13:50:10;10.97;;;4.90;;
12812;SDS011;6471;50.932;6.934;2023-10-09T13:52:36;6.40;;;3.67;;
12812;SDS011;6471;50.932;6.934;2023-10-09T13:55:08;7.70;;;4.13;;
12812;SDS011;6471;50.932;6.934;2023-10-09T13:57:40;10.53;;;4.20;;
12812;SDS011;6471;50.932;6.934;2023-10-09T14:00:10;6.93;;;4.00;;
12812;SDS011;6471;50.932;6.934;2023-10-09T14:02:38;6.83;;;3.97;;
12812;SDS011;6471;50.932;6.934;2023-10-09T14:05:04;7.80;;;3.77;;
12812;SDS011;6471;50.932;6.934;2023-10-09T14:07:33;6.17;;;4.13;;
12812;SDS011;6471;50.932;6.934;2023-10-09T14:10:00;6.00;;;3.37;;
12812;SDS011;6471;50.932;6.934;2023-10-09T14:12:42;6.97;;;3.77;;
12812;SDS011;6471;50.932;6.934;2023-10-09T14:15:08;6.10;;;3.73;;
12812;SDS011;6471;50.932;6.934;2023-10-09T14:17:41;7.33;;;4.33;;
12812;SDS011;6471;50.932;6.934;2023-10-09T14:20:08;7.07;;;4.10;;
12812;SDS011;6471;50.932;6.934;2023-10-09T14:22:52;6.77;;;3.90;;
12812;SDS011;6471;50.932;6.934;2023-10-09T14:25:18;6.43;;;3.87;;
12812;SDS011;6471;50.932;6.934;2023-10-09T14:27:46;6.90;;;3.97;;
12812;SDS011;6471;50.932;6.934;2023-10-09T14:30:18;7.43;;;4.37;;
12812;SDS011;6471;50.932;6.934;2023-10-09T14:32:55;7.07;;;4.03;;
12812;SDS011;6471;50.932;6.934;2023-10-09T14:35:22;6.97;;;3.97;;
12812;SDS011;6471;50.932;6.934;2023-10-09T14:37:55;8.37;;;4.50;;
12812;SDS011;6471;50.932;6.934;2023-10-09T14:40:21;7.87;;;4.10;;
12812;SDS011;6471;50.932;6.934;2023-10-09T14:42:57;9.43;;;5.10;;
12812;SDS011;6471;50.932;6.934;2023-10-09T14:45:26;8.17;;;5.00;;
12812;SDS011;6471;50.932;6.934;2023-10-09T14:47:53;9.60;;;4.43;;
12812;SDS011;6471;50.932;6.934;2023-10-09T14:50:22;10.20;;;5.00;;
12812;SDS011;6471;50.932;6.934;2023-10-09T14:52:49;7.73;;;4.70;;
12812;SDS011;6471;50.932;6.934;2023-10-09T14:55:18;8.07;;;4.27;;
12812;SDS011;6471;50.932;6.934;2023-10-09T14:57:46;8.37;;;4.40;;
12812;SDS011;6471;50.932;6.934;2023-10-09T15:00:14;8.87;;;5.10;;
12812;SDS011;6471;50.932;6.934;2023-10-09T15:02:41;8.63;;;4.93;;
12812;SDS011;6471;50.932;6.934;2023-10-09T15:05:07;9.13;;;5.17;;
12812;SDS011;6471;50.932;6.934;2023-10-09T15:07:36;8.03;;;4.10;;
12812;SDS011;6471;50.932;6.934;2023-10-09T15:10:04;8.50;;;4.93;;
12812;SDS011;6471;50.932;6.934;2023-10-09T15:12:30;8.17;;;4.67;;
12812;SDS011;6471;50.932;6.934;2023-10-09T15:14:56;9.17;;;4.70;;
12812;SDS011;6471;50.932;6.934;2023-10-09T15:17:22;5.73;;;4.00;;
12812;SDS011;6471;50.932;6.934;2023-10-09T15:19:49;5.20;;;4.13;;
12812;SDS011;6471;50.932;6.934;2023-10-09T15:22:21;7.37;;;4.43;;
12812;SDS011;6471;50.932;6.934;2023-10-09T15:24:47;7.13;;;4.87;;
12812;SDS011;6471;50.932;6.934;2023-10-09T15:27:14;7.23;;;4.80;;
12812;SDS011;6471;50.932;6.934;2023-10-09T15:29:40;7.23;;;4.30;;
12812;SDS011;6471;50.932;6.934;2023-10-09T15:32:09;8.80;;;4.83;;
12812;SDS011;6471;50.932;6.934;2023-10-09T15:34:47;6.50;;;4.50;;
12812;SDS011;6471;50.932;6.934;2023-10-09T15:37:13;4.77;;;3.83;;
12812;SDS011;6471;50.932;6.934;2023-10-09T15:39:39;6.03;;;4.27;;
12812;SDS011;6471;50.932;6.934;2023-10-09T15:42:06;4.67;;;3.70;;
12812;SDS011;6471;50.932;6.934;2023-10-09T15:44:33;4.40;;;3.67;;
12812;SDS011;6471;50.932;6.934;2023-10-09T15:47:01;3.80;;;3.03;;
12812;SDS011;6471;50.932;6.934;2023-10-09T15:49:28;4.87;;;3.57;;
12812;SDS011;6471;50.932;6.934;2023-10-09T15:51:55;8.67;;;4.20;;